Time;durP1;ratioP1;P1;durP2;ratioP2;P2;SDS_P1;SDS_P2;PMS_P1;PMS_P2;Temp;Humidity;BMP_temperature;BMP_pressure;BME280_temperature;BME280_humidity;BME280_pressure;Samples;Min_cycle;Max_cycle;Signal;HPM_P1;HPM_P2
2022/05/23 00:02:28;;;;;;;10.80;3.10;;;14.30;73.30;;;;;;4903644;29;20040;-82
2022/05/23 00:05:00;;;;;;;8.07;3.03;;;14.40;72.80;;;;;;4874782;29;20059;-81
2022/05/23 00:07:34;;;;;;;8.43;3.17;;;14.30;73.30;;;;;;4919449;29;20098;-81
2022/05/23 00:10:53;;;;;;;;;;;;;;;;;;;;;
2022/05/23 00:13:45;;;;;;;9.60;3.00;;;14.20;73.80;;;;;;4903233;29;20080;-82
2022/05/23 00:16:48;;;;;;;6.60;2.95;;;14.20;73.40;;;;;;4873560;29;20036;-81
2022/05/23 00:19:30;;;;;;;13.32;3.15;;;14.20;73.70;;;;;;4919296;29;20051;-81
2022/05/23 00:22:16;;;;;;;6.57;2.72;;;14.30;73.60;;;;;;4888587;29;20044;-81
2022/05/23 00:25:23;;;;;;;7.53;2.75;;;14.30;73.60;;;;;;4903070;29;20079;-81
2022/05/23 00:28:03;;;;;;;5.97;2.67;;;14.00;73.30;;;;;;4887885;29;20168;-82
2022/05/23 00:30:35;;;;;;;6.25;3.55;;;14.10;73.60;;;;;;4903552;29;20047;-82
2022/05/23 00:36:23;;;;;;;6.93;2.30;;;14.10;73.90;;;;;;4903121;29;20108;-82
2022/05/23 00:39:23;;;;;;;8.02;2.85;;;14.00;73.60;;;;;;4890234;29;20036;-81
2022/05/23 00:45:21;;;;;;;10.38;2.88;;;14.00;74.10;;;;;;4901508;29;20664;-82
2022/05/23 00:48:35;;;;;;;7.97;2.50;;;14.00;74.00;;;;;;4909825;29;20054;-82
2022/05/23 00:51:27;;;;;;;9.18;2.50;;;14.00;74.00;;;;;;4887808;29;20134;-81
2022/05/23 00:54:32;;;;;;;7.30;2.50;;;14.10;73.70;;;;;;4902798;29;20036;-82
2022/05/23 00:57:19;;;;;;;5.97;2.60;;;14.10;73.30;;;;;;4934328;29;20047;-80
2022/05/23 01:00:10;;;;;;;9.18;2.67;;;14.10;73.40;;;;;;4903552;29;20048;-81
2022/05/23 01:03:52;;;;;;;5.53;2.40;;;14.10;73.60;;;;;;4901314;29;20092;-82
2022/05/23 01:06:30;;;;;;;8.57;2.80;;;14.10;73.50;;;;;;4902212;29;20059;-81
2022/05/23 01:09:22;;;;;;;7.05;2.85;;;14.20;72.80;;;;;;4887452;29;20036;-81
2022/05/23 01:12:39;;;;;;;5.68;2.28;;;14.20;72.70;;;;;;4932347;29;20488;-82
2022/05/23 01:15:45;;;;;;;6.82;2.40;;;14.20;72.60;;;;;;4917612;29;20105;-82
2022/05/23 01:18:50;;;;;;;6.47;2.53;;;14.20;72.80;;;;;;4902722;29;20057;-82
2022/05/23 01:21:59;;;;;;;8.63;2.80;;;14.20;72.80;;;;;;4918964;29;20054;-82
2022/05/23 01:24:43;;;;;;;5.35;2.65;;;14.20;72.90;;;;;;4907432;29;20067;-82
2022/05/23 01:27:17;;;;;;;7.40;2.65;;;14.20;72.50;;;;;;4892700;29;20044;-81
2022/05/23 01:29:52;;;;;;;8.18;2.53;;;14.30;72.30;;;;;;4915040;29;20048;-77
2022/05/23 01:32:57;;;;;;;6.90;2.60;;;14.30;72.40;;;;;;4922032;29;20489;-78
2022/05/23 01:35:49;;;;;;;16.33;2.80;;;14.30;72.30;;;;;;4886063;29;20099;-82
2022/05/23 01:38:31;;;;;;;9.13;2.47;;;14.30;72.20;;;;;;4894907;29;20122;-82
2022/05/23 01:41:26;;;;;;;9.25;2.92;;;14.30;71.90;;;;;;4881119;29;20051;-82
2022/05/23 01:44:32;;;;;;;7.18;2.38;;;14.30;71.70;;;;;;4916917;29;20075;-81
2022/05/23 01:47:35;;;;;;;6.32;2.33;;;14.30;71.80;;;;;;4904207;29;20393;-82
2022/05/23 01:50:33;;;;;;;8.20;2.40;;;14.40;71.40;;;;;;4887025;29;20103;-82
2022/05/23 01:53:45;;;;;;;;;;;;;;;;;;;;;
2022/05/23 01:57:02;;;;;;;;;;;;;;;;;;;;;
2022/05/23 02:07:07;;;;;;;5.22;2.00;;;14.30;71.40;;;;;;4900428;29;20036;-82
2022/05/23 02:09:53;;;;;;;6.68;2.38;;;14.20;71.50;;;;;;4899665;29;20071;-82
2022/05/23 02:12:35;;;;;;;11.60;2.47;;;14.30;71.20;;;;;;4898852;29;20083;-82
2022/05/23 02:15:28;;;;;;;;;;;;;;;;;;;;;
2022/05/23 02:18:37;;;;;;;8.13;2.45;;;14.10;71.80;;;;;;4911774;29;19977;-82
2022/05/23 02:21:40;;;;;;;7.13;3.47;;;14.10;71.80;;;;;;4886330;29;20047;-82
2022/05/23 02:24:35;;;;;;;5.43;2.95;;;14.00;71.80;;;;;;4886578;29;20440;-81
2022/05/23 02:27:49;;;;;;;6.22;2.33;;;14.10;72.10;;;;;;4885081;29;20494;-81
2022/05/23 02:30:31;;;;;;;5.82;2.45;;;14.00;72.00;;;;;;4885906;29;20130;-82
2022/05/23 02:33:58;;;;;;;7.30;2.22;;;14.10;72.00;;;;;;4913886;29;20434;-82
2022/05/23 02:37:38;;;;;;;5.43;2.40;;;13.90;72.30;;;;;;4827905;29;20125;-82
2022/05/23 02:41:11;;;;;;;;;;;;;;;;;;;;;
2022/05/23 02:44:27;;;;;;;7.13;2.35;;;13.90;72.60;;;;;;4900462;29;20052;-82
2022/05/23 02:47:28;;;;;;;6.28;2.17;;;13.80;72.90;;;;;;4878299;29;20055;-82
2022/05/23 02:50:53;;;;;;;7.13;2.53;;;13.80;73.00;;;;;;4885809;29;20048;-81
2022/05/23 02:53:56;;;;;;;6.65;2.40;;;13.60;73.00;;;;;;4875137;29;20052;-82
2022/05/23 02:57:02;;;;;;;6.63;2.67;;;13.70;73.50;;;;;;4866512;29;20509;-81
2022/05/23 03:00:07;;;;;;;9.88;2.25;;;13.60;73.80;;;;;;4847276;29;20041;-81
2022/05/23 03:03:24;;;;;;;7.55;2.40;;;13.60;73.80;;;;;;4863298;29;20574;-81
2022/05/23 03:06:21;;;;;;;6.93;2.10;;;13.60;73.70;;;;;;4865627;29;20045;-81
2022/05/23 03:09:24;;;;;;;3.88;2.53;;;13.60;73.90;;;;;;4892087;29;20410;-81
2022/05/23 03:12:12;;;;;;;5.93;2.55;;;13.50;74.10;;;;;;4866197;29;20056;-81
2022/05/23 03:15:33;;;;;;;;;;;;;;;;;;;;;
2022/05/23 03:18:28;;;;;;;4.97;2.53;;;13.40;74.70;;;;;;4880719;29;20132;-81
2022/05/23 03:27:31;;;;;;;9.23;2.85;;;13.30;75.30;;;;;;4880980;29;20036;-82
2022/05/23 03:30:12;;;;;;;;;;;;;;;;;;;;;
2022/05/23 03:33:06;;;;;;;6.85;2.72;;;13.30;76.00;;;;;;4878725;29;20447;-82
2022/05/23 03:43:16;;;;;;;;;;;;;;;;;;;;;
2022/05/23 03:46:13;;;;;;;6.57;2.90;;;13.20;76.30;;;;;;4876747;29;20056;-82
2022/05/23 03:49:07;;;;;;;;;;;;;;;;;;;;;
2022/05/23 03:52:39;;;;;;;6.90;2.58;;;13.20;76.20;;;;;;4886111;29;20048;-81
2022/05/23 03:55:24;;;;;;;6.85;3.05;;;13.20;76.20;;;;;;4881275;29;20044;-81
2022/05/23 04:01:42;;;;;;;7.10;2.97;;;13.50;76.60;;;;;;4876835;29;20292;-81
2022/05/23 04:05:09;;;;;;;;;;;;;;;;;;;;;
2022/05/23 04:14:29;;;;;;;5.57;2.97;;;13.10;76.50;;;;;;4851213;29;20049;-81
2022/05/23 04:21:35;;;;;;;;;;;;;;;;;;;;;
2022/05/23 04:27:45;;;;;;;8.38;3.20;;;13.20;76.80;;;;;;4860506;29;20132;-82
2022/05/23 04:30:43;;;;;;;6.07;2.97;;;13.10;77.00;;;;;;4845613;29;20128;-81
2022/05/23 04:36:52;;;;;;;6.20;3.03;;;13.20;76.60;;;;;;4898505;29;20051;-81
2022/05/23 04:43:26;;;;;;;7.63;3.00;;;13.50;76.10;;;;;;4887283;29;20099;-77
2022/05/23 04:50:35;;;;;;;;;;;;;;;;;;;;;
2022/05/23 04:52:47;;;;;;;12.55;3.42;;;13.40;76.60;;;;;;4892508;29;20495;-81
2022/05/23 04:55:27;;;;;;;7.22;3.20;;;13.40;76.80;;;;;;4881841;29;20160;-81
2022/05/23 04:58:50;;;;;;;8.65;3.10;;;13.50;76.50;;;;;;4883089;29;20495;-82
2022/05/23 05:01:43;;;;;;;9.57;3.97;;;13.60;76.70;;;;;;4887832;29;20430;-81
2022/05/23 05:04:09;;;;;;;7.53;3.20;;;13.60;76.40;;;;;;4887119;29;20119;-77
2022/05/23 05:06:35;;;;;;;8.50;3.67;;;13.70;76.30;;;;;;4887101;29;20127;-81
2022/05/23 05:09:38;;;;;;;7.18;3.55;;;13.80;76.10;;;;;;4887464;29;20068;-83
2022/05/23 05:13:15;;;;;;;;;;;;;;;;;;;;;
2022/05/23 05:15:29;;;;;;;9.05;3.35;;;14.00;75.00;;;;;;4910379;29;20437;-80
2022/05/23 05:18:04;;;;;;;8.95;3.40;;;14.10;75.30;;;;;;4887896;29;20074;-81
2022/05/23 05:20:38;;;;;;;7.35;3.00;;;14.10;75.20;;;;;;4886584;29;20493;-83
2022/05/23 05:23:04;;;;;;;7.95;3.72;;;14.20;74.70;;;;;;4887021;29;20046;-79
2022/05/23 05:25:31;;;;;;;7.07;3.30;;;14.20;74.80;;;;;;4886723;29;20032;-81
2022/05/23 05:27:57;;;;;;;9.55;3.50;;;14.20;74.80;;;;;;4886638;29;20044;-79
2022/05/23 05:30:23;;;;;;;6.80;3.47;;;14.30;74.50;;;;;;4886415;29;20036;-77
2022/05/23 05:33:04;;;;;;;9.77;3.72;;;14.30;74.30;;;;;;4901914;29;20036;-75
2022/05/23 05:35:42;;;;;;;11.55;3.47;;;14.30;74.70;;;;;;4900755;29;20063;-74
2022/05/23 05:38:21;;;;;;;12.23;3.83;;;14.40;74.20;;;;;;4901066;29;20441;-74
2022/05/23 05:40:51;;;;;;;7.43;3.55;;;14.50;74.60;;;;;;4902026;29;20071;-76
2022/05/23 05:43:26;;;;;;;9.10;3.47;;;14.70;74.80;;;;;;4886531;29;20047;-74
2022/05/23 05:46:08;;;;;;;9.75;3.55;;;14.70;73.90;;;;;;4886233;29;20048;-75
2022/05/23 05:48:40;;;;;;;9.77;3.80;;;14.70;73.60;;;;;;4902148;29;20052;-74
2022/05/23 05:51:07;;;;;;;10.23;3.75;;;14.80;74.00;;;;;;4886275;29;20039;-75
2022/05/23 05:53:33;;;;;;;8.98;3.60;;;14.90;73.90;;;;;;4902008;29;20048;-72
2022/05/23 05:56:01;;;;;;;9.15;4.30;;;15.10;73.40;;;;;;4886382;29;20067;-74
2022/05/23 05:58:29;;;;;;;8.73;3.92;;;15.20;73.00;;;;;;4901641;29;20131;-75
2022/05/23 06:00:54;;;;;;;8.80;3.60;;;15.50;72.70;;;;;;4901810;29;20083;-73
2022/05/23 06:03:20;;;;;;;11.88;3.80;;;15.60;71.50;;;;;;4901936;29;20521;-74
2022/05/23 06:11:26;;;;;;;7.88;3.50;;;16.10;71.50;;;;;;4901562;29;20062;-73
2022/05/23 06:13:58;;;;;;;7.22;3.67;;;16.40;69.30;;;;;;4888083;29;20447;-74
2022/05/23 06:16:25;;;;;;;8.68;4.15;;;16.30;69.00;;;;;;4902703;29;20044;-74
2022/05/23 06:18:51;;;;;;;11.98;4.18;;;16.50;69.00;;;;;;4902067;29;20047;-74
2022/05/23 06:21:17;;;;;;;9.38;3.53;;;16.50;68.60;;;;;;4901641;29;20040;-74
2022/05/23 06:23:46;;;;;;;6.95;3.58;;;16.80;69.30;;;;;;4901495;29;20377;-73
2022/05/23 06:26:16;;;;;;;8.55;3.75;;;16.80;68.90;;;;;;4885675;29;20539;-73
2022/05/23 06:28:45;;;;;;;6.80;3.60;;;16.70;68.30;;;;;;4901764;29;20102;-75
2022/05/23 06:31:11;;;;;;;9.95;3.85;;;17.00;67.80;;;;;;4901486;29;20044;-76
2022/05/23 06:33:38;;;;;;;7.80;4.05;;;17.10;67.50;;;;;;4900741;29;20060;-74
2022/05/23 06:36:04;;;;;;;;;;;17.40;67.30;;;;;;4885644;29;20046;-75
2022/05/23 06:38:30;;;;;;;9.17;4.23;;;17.70;66.90;;;;;;4885108;29;19993;-74
2022/05/23 06:40:56;;;;;;;9.43;3.72;;;17.80;66.50;;;;;;4869997;29;20127;-74
2022/05/23 06:43:21;;;;;;;8.77;3.65;;;18.00;65.10;;;;;;4901189;29;20138;-72
2022/05/23 06:45:47;;;;;;;7.55;3.38;;;18.00;65.50;;;;;;4885870;29;20044;-73
2022/05/23 06:48:14;;;;;;;10.02;3.53;;;18.00;65.80;;;;;;4885539;29;20433;-73
2022/05/23 06:50:40;;;;;;;8.02;3.60;;;18.00;65.70;;;;;;4885595;29;20126;-80
2022/05/23 06:53:06;;;;;;;13.48;3.50;;;17.80;65.70;;;;;;4900988;29;20040;-75
2022/05/23 06:55:32;;;;;;;10.02;3.28;;;18.00;66.30;;;;;;4885554;29;20048;-76
2022/05/23 06:57:57;;;;;;;9.70;3.97;;;18.30;65.20;;;;;;4869572;29;20040;-76
2022/05/23 07:00:23;;;;;;;6.40;3.70;;;18.30;64.70;;;;;;4870216;29;20103;-77
2022/05/23 07:02:49;;;;;;;10.43;4.28;;;18.30;65.10;;;;;;4885241;29;20461;-75
2022/05/23 07:13:30;;;;;;;;;;;19.00;63.10;;;;;;4900895;29;20048;-74
2022/05/23 07:15:57;;;;;;;9.50;3.58;;;19.20;62.30;;;;;;4900664;29;19919;-76
2022/05/23 07:18:23;;;;;;;7.75;3.72;;;19.10;62.90;;;;;;4884873;29;20044;-75
2022/05/23 07:20:49;;;;;;;9.25;3.50;;;19.30;63.60;;;;;;4886444;29;20059;-74
2022/05/23 07:26:48;;;;;;;9.48;3.65;;;19.00;63.60;;;;;;4906454;29;20084;-78
2022/05/23 07:29:31;;;;;;;8.25;3.90;;;18.90;63.80;;;;;;4900325;29;20119;-83
2022/05/23 07:31:57;;;;;;;10.73;4.60;;;18.90;65.40;;;;;;4884815;29;20183;-78
2022/05/23 07:35:00;;;;;;;10.02;3.83;;;18.80;65.20;;;;;;4884390;29;20540;-81
2022/05/23 07:37:27;;;;;;;11.43;3.90;;;18.90;64.80;;;;;;4884475;29;20108;-73
2022/05/23 07:39:56;;;;;;;9.23;3.60;;;19.00;65.30;;;;;;4898480;29;20114;-77
2022/05/23 07:42:22;;;;;;;7.00;3.85;;;19.10;65.80;;;;;;4891988;29;20040;-71
2022/05/23 07:44:48;;;;;;;12.05;3.80;;;19.00;64.40;;;;;;4879067;29;20474;-74
2022/05/23 07:47:14;;;;;;;8.95;4.07;;;19.20;65.30;;;;;;4896769;29;20043;-75
2022/05/23 07:49:40;;;;;;;9.82;4.13;;;19.50;64.20;;;;;;4895669;29;20103;-74
2022/05/23 07:52:06;;;;;;;12.38;3.85;;;19.50;62.90;;;;;;4913532;29;20495;-73
2022/05/23 08:02:54;;;;;;;12.18;4.30;;;20.00;62.80;;;;;;4911059;29;20052;-74
2022/05/23 08:05:22;;;;;;;7.55;4.20;;;20.00;62.00;;;;;;4897166;29;20052;-74
2022/05/23 08:07:47;;;;;;;11.05;4.78;;;20.20;62.80;;;;;;4888861;29;20059;-73
2022/05/23 08:10:13;;;;;;;9.13;4.57;;;20.50;62.30;;;;;;4894591;29;20044;-74
2022/05/23 08:12:42;;;;;;;10.70;4.35;;;20.60;60.90;;;;;;4909502;29;20044;-72
2022/05/23 08:15:08;;;;;;;9.23;4.38;;;20.10;61.80;;;;;;4896374;29;20441;-73
2022/05/23 08:17:33;;;;;;;;;;;20.40;61.90;;;;;;4880909;29;20048;-71
2022/05/23 08:19:59;;;;;;;9.73;4.25;;;20.40;62.00;;;;;;4895035;29;20404;-72
2022/05/23 08:22:29;;;;;;;9.48;4.32;;;20.30;62.40;;;;;;4901960;29;20067;-79
2022/05/23 08:24:57;;;;;;;11.82;4.35;;;20.30;61.30;;;;;;4886500;29;20058;-73
2022/05/23 08:27:24;;;;;;;7.03;3.67;;;20.50;61.40;;;;;;4885038;29;20046;-73
2022/05/23 08:29:52;;;;;;;8.90;3.97;;;20.80;61.90;;;;;;4886151;29;20044;-72
2022/05/23 08:32:18;;;;;;;11.77;4.55;;;20.80;62.40;;;;;;4884732;29;20115;-72
2022/05/23 08:34:44;;;;;;;9.20;4.10;;;20.70;61.90;;;;;;4897591;29;20056;-71
2022/05/23 08:37:10;;;;;;;7.47;4.38;;;20.90;62.30;;;;;;4883155;29;20104;-72
2022/05/23 08:39:36;;;;;;;10.48;5.13;;;20.90;61.00;;;;;;4899969;29;20499;-73
2022/05/23 08:42:24;;;;;;;9.40;4.50;;;20.80;61.80;;;;;;4883851;29;20131;-71
2022/05/23 08:45:10;;;;;;;10.02;4.90;;;20.60;63.00;;;;;;4886273;29;20052;-72
2022/05/23 08:48:12;;;;;;;12.52;5.10;;;20.30;63.50;;;;;;4898432;29;20074;-71
2022/05/23 08:50:59;;;;;;;9.40;4.40;;;20.50;63.40;;;;;;4901053;29;20083;-72
2022/05/23 08:53:49;;;;;;;11.98;4.68;;;20.50;62.80;;;;;;4911829;29;20088;-75
2022/05/23 08:56:23;;;;;;;10.77;4.80;;;20.80;63.70;;;;;;4896950;29;20078;-71
2022/05/23 08:58:53;;;;;;;13.52;4.50;;;20.80;63.20;;;;;;4900274;29;20051;-73
2022/05/23 09:01:23;;;;;;;11.10;4.90;;;20.90;61.90;;;;;;4897205;29;20079;-69
2022/05/23 09:04:01;;;;;;;10.30;4.97;;;21.00;62.20;;;;;;4914034;29;20080;-76
2022/05/23 09:06:34;;;;;;;7.45;4.53;;;21.00;62.30;;;;;;4898935;29;20119;-73
2022/05/23 09:09:03;;;;;;;10.02;4.40;;;21.20;61.60;;;;;;4881000;29;20485;-67
2022/05/23 09:11:46;;;;;;;10.13;4.93;;;21.30;62.80;;;;;;4876517;29;20048;-73
2022/05/23 09:14:16;;;;;;;11.85;4.10;;;21.60;62.20;;;;;;4888844;29;20091;-78
2022/05/23 09:16:50;;;;;;;8.27;4.63;;;21.80;60.90;;;;;;4883889;29;20048;-73
2022/05/23 09:19:45;;;;;;;14.85;4.80;;;21.90;60.80;;;;;;4883734;29;20076;-71
2022/05/23 09:22:47;;;;;;;8.10;4.57;;;21.90;61.30;;;;;;4883805;29;20115;-71
2022/05/23 09:25:51;;;;;;;10.85;4.78;;;21.90;60.20;;;;;;4864529;29;20106;-74
2022/05/23 09:28:27;;;;;;;11.55;5.30;;;22.20;60.60;;;;;;4871007;29;20415;-75
2022/05/23 09:31:07;;;;;;;13.90;5.35;;;22.20;59.50;;;;;;4868397;29;20381;-74
2022/05/23 09:33:46;;;;;;;9.73;5.10;;;21.80;60.10;;;;;;4867373;29;20052;-75
2022/05/23 09:36:39;;;;;;;10.63;5.10;;;21.80;61.00;;;;;;4883687;29;20066;-76
2022/05/23 09:39:34;;;;;;;9.07;4.85;;;21.70;60.70;;;;;;4883011;29;20507;-73
2022/05/23 09:48:23;;;;;;;10.77;5.13;;;22.10;60.00;;;;;;4899988;29;20148;-73
2022/05/23 09:51:00;;;;;;;10.70;5.00;;;22.20;60.60;;;;;;4883068;29;20045;-74
2022/05/23 09:53:32;;;;;;;12.82;5.13;;;22.20;61.70;;;;;;4900175;29;20052;-73
2022/05/23 09:56:48;;;;;;;11.52;5.57;;;22.30;60.60;;;;;;4883768;29;20176;-79
2022/05/23 09:59:38;;;;;;;12.25;5.57;;;22.50;60.50;;;;;;4868520;29;20093;-78
2022/05/23 10:05:53;;;;;;;13.55;5.85;;;22.50;60.30;;;;;;4898151;29;20050;-77
2022/05/23 10:08:28;;;;;;;18.83;5.82;;;22.60;59.20;;;;;;4867634;29;20040;-75
2022/05/23 10:10:57;;;;;;;12.25;5.78;;;22.60;59.80;;;;;;4867507;29;20037;-72
2022/05/23 10:13:29;;;;;;;10.95;5.68;;;22.60;59.90;;;;;;4867159;29;20124;-75
2022/05/23 10:15:59;;;;;;;9.70;5.55;;;22.50;60.10;;;;;;4882767;29;20490;-74
2022/05/23 10:18:30;;;;;;;7.70;6.00;;;22.50;61.40;;;;;;4882999;29;20044;-75
2022/05/23 10:20:58;;;;;;;9.43;5.28;;;22.70;59.70;;;;;;4883107;29;20115;-73
2022/05/23 10:23:33;;;;;;;8.30;5.20;;;23.10;60.10;;;;;;4867518;29;20047;-76
2022/05/23 10:26:25;;;;;;;10.63;4.85;;;23.20;58.00;;;;;;4882748;29;20504;-75
2022/05/23 10:29:03;;;;;;;12.07;5.90;;;23.30;57.20;;;;;;4883648;29;20044;-74
2022/05/23 10:31:36;;;;;;;12.00;5.68;;;23.30;57.80;;;;;;4882937;29;20044;-77
2022/05/23 10:34:13;;;;;;;10.90;5.47;;;23.50;58.20;;;;;;4882602;29;20131;-77
2022/05/23 10:36:42;;;;;;;11.73;6.00;;;23.90;57.40;;;;;;4882829;29;20088;-76
2022/05/23 10:42:35;;;;;;;12.55;5.80;;;24.30;56.60;;;;;;4882569;29;20049;-75
2022/05/23 10:45:14;;;;;;;9.38;5.28;;;24.20;56.10;;;;;;4867026;29;20132;-74
2022/05/23 10:48:16;;;;;;;12.32;5.10;;;24.40;56.70;;;;;;4882583;29;20045;-75
2022/05/23 10:51:05;;;;;;;8.35;5.32;;;24.50;54.60;;;;;;4866722;29;20053;-75
2022/05/23 10:53:37;;;;;;;11.57;5.07;;;24.50;53.50;;;;;;4866403;29;20044;-74
2022/05/23 10:57:03;;;;;;;;;;;;;;;;;;;;;
2022/05/23 11:00:33;;;;;;;;;;;;;;;;;;;;;
2022/05/23 11:37:43;;;;;;;10.60;3.08;;;24.40;54.10;;;;;;4767988;30;20051;-77
2022/05/23 11:40:11;;;;;;;9.85;3.50;;;24.50;53.90;;;;;;4821555;29;20056;-78
2022/05/23 11:42:49;;;;;;;7.22;3.30;;;24.60;55.00;;;;;;4847745;29;20140;-77
2022/05/23 11:45:57;;;;;;;8.00;3.28;;;24.40;53.70;;;;;;4866365;29;20044;-78
2022/05/23 11:48:39;;;;;;;8.15;3.13;;;24.40;55.50;;;;;;4866216;29;20044;-77
2022/05/23 11:51:32;;;;;;;8.05;3.30;;;24.50;53.50;;;;;;4866104;29;20048;-77
2022/05/23 11:54:04;;;;;;;9.35;3.60;;;24.30;54.70;;;;;;4881810;29;20180;-78
2022/05/23 11:56:38;;;;;;;6.68;3.20;;;24.30;54.30;;;;;;4869129;29;20056;-77
2022/05/23 11:59:06;;;;;;;4.93;2.40;;;24.40;54.90;;;;;;4885848;29;20041;-74
2022/05/23 12:01:32;;;;;;;5.35;2.00;;;24.20;53.70;;;;;;4890823;29;20501;-74
2022/05/23 12:04:01;;;;;;;7.85;2.33;;;24.30;51.20;;;;;;4875846;29;20370;-75
2022/05/23 12:06:27;;;;;;;3.58;2.13;;;24.10;52.30;;;;;;4885353;29;20048;-78
2022/05/23 12:09:02;;;;;;;;;;;24.10;54.10;;;;;;4885849;29;20070;-76
2022/05/23 12:11:30;;;;;;;7.03;3.28;;;24.10;52.70;;;;;;4901166;29;19919;-77
2022/05/23 12:14:18;;;;;;;7.32;2.67;;;24.20;53.50;;;;;;4885325;29;20040;-78
2022/05/23 12:17:06;;;;;;;8.77;3.25;;;24.20;54.10;;;;;;4885214;29;20055;-76
2022/05/23 12:19:48;;;;;;;7.97;2.40;;;24.40;53.10;;;;;;4885270;29;20438;-76
2022/05/23 12:22:28;;;;;;;5.68;2.72;;;24.50;54.80;;;;;;4884712;29;20105;-78
2022/05/23 12:25:07;;;;;;;6.07;2.72;;;24.40;52.90;;;;;;4869641;29;20792;-76
2022/05/23 12:28:01;;;;;;;6.45;2.95;;;24.40;52.80;;;;;;4869810;29;20163;-77
2022/05/23 12:30:26;;;;;;;10.68;2.90;;;24.50;52.60;;;;;;4884240;29;20056;-77
2022/05/23 12:32:58;;;;;;;9.20;2.45;;;24.50;52.70;;;;;;4901486;29;20049;-77
2022/05/23 12:35:41;;;;;;;7.97;2.40;;;24.20;53.40;;;;;;4868908;29;20086;-78
2022/05/23 12:38:58;;;;;;;7.18;2.10;;;24.10;52.20;;;;;;4884271;29;20052;-77
2022/05/23 12:41:33;;;;;;;5.57;2.10;;;23.90;52.20;;;;;;4853833;29;20435;-76
2022/05/23 12:44:11;;;;;;;4.38;2.30;;;24.00;52.20;;;;;;4868903;29;20370;-76
2022/05/23 12:46:58;;;;;;;6.50;2.50;;;24.00;52.50;;;;;;4884604;29;20040;-75
2022/05/23 12:49:27;;;;;;;5.90;2.65;;;24.10;52.50;;;;;;4884826;29;20048;-75
2022/05/23 12:52:20;;;;;;;8.52;2.40;;;23.80;53.30;;;;;;4884550;29;20105;-77
2022/05/23 12:55:08;;;;;;;7.57;2.58;;;23.90;52.60;;;;;;4884437;29;20526;-79
2022/05/23 12:58:24;;;;;;;6.72;2.63;;;23.90;53.80;;;;;;4884514;29;20052;-78
2022/05/23 13:00:59;;;;;;;5.03;2.40;;;24.00;52.90;;;;;;4872542;29;20406;-77
2022/05/23 13:03:40;;;;;;;8.07;2.30;;;23.80;53.50;;;;;;4883971;29;20059;-77
2022/05/23 13:06:17;;;;;;;4.88;2.17;;;23.90;54.20;;;;;;4867966;29;20072;-79
2022/05/23 13:08:53;;;;;;;7.20;3.00;;;24.00;53.80;;;;;;4867797;29;20048;-77
2022/05/23 13:11:35;;;;;;;9.05;3.03;;;23.90;53.90;;;;;;4868319;29;20049;-79
2022/05/23 13:14:01;;;;;;;5.55;2.45;;;23.90;55.20;;;;;;4900611;29;20048;-77
2022/05/23 13:16:32;;;;;;;8.65;2.80;;;24.10;54.60;;;;;;4868262;29;20041;-80
2022/05/23 13:22:23;;;;;;;5.43;2.55;;;23.90;54.40;;;;;;4883778;29;20408;-80
2022/05/23 13:24:55;;;;;;;4.75;2.60;;;24.00;56.20;;;;;;4868054;29;20470;-75
2022/05/23 13:27:28;;;;;;;18.40;9.02;;;24.00;56.60;;;;;;4897632;29;20056;-72
2022/05/23 13:30:24;;;;;;;15.27;11.45;;;24.00;58.70;;;;;;4914625;29;20048;-72
2022/05/23 13:33:01;;;;;;;19.80;11.93;;;23.80;62.20;;;;;;4882482;29;20051;-77
2022/05/23 13:35:28;;;;;;;19.77;12.32;;;23.70;63.40;;;;;;4899264;29;20141;-74
2022/05/23 13:37:54;;;;;;;16.27;11.02;;;23.60;62.00;;;;;;4902324;29;20047;-73
2022/05/23 13:40:30;;;;;;;19.15;11.25;;;23.40;63.50;;;;;;4887809;29;20051;-75
2022/05/23 13:43:12;;;;;;;17.03;12.83;;;23.30;65.20;;;;;;4881994;29;20044;-74
2022/05/23 13:45:42;;;;;;;15.98;11.93;;;23.20;66.60;;;;;;4897031;29;20434;-74
2022/05/23 13:48:23;;;;;;;19.38;11.35;;;23.10;65.60;;;;;;4899083;29;20052;-72
2022/05/23 13:50:54;;;;;;;17.65;11.65;;;23.10;66.30;;;;;;4908444;29;20359;-74
2022/05/23 13:53:31;;;;;;;17.08;11.50;;;23.00;66.10;;;;;;4898187;29;20063;-75
2022/05/23 13:56:01;;;;;;;19.98;12.57;;;23.00;66.10;;;;;;4897424;29;20080;-72
2022/05/23 13:58:31;;;;;;;19.90;12.13;;;23.00;65.90;;;;;;4883491;29;20090;-73
2022/05/23 14:01:08;;;;;;;17.92;11.77;;;23.00;66.00;;;;;;4897065;29;20048;-72
2022/05/23 14:03:44;;;;;;;16.25;11.57;;;23.00;66.50;;;;;;4883292;29;20079;-76
2022/05/23 14:06:17;;;;;;;16.80;11.73;;;22.90;66.10;;;;;;4912286;29;20059;-77
2022/05/23 14:08:50;;;;;;;18.98;12.55;;;22.80;66.50;;;;;;4900414;29;20048;-79
2022/05/23 14:20:28;;;;;;;27.15;13.65;;;22.20;68.20;;;;;;4786055;29;20088;-83
2022/05/23 15:07:17;;;;;;;24.33;17.48;;;20.40;73.50;;;;;;4838489;29;20073;-82
2022/05/23 15:09:43;;;;;;;24.50;18.58;;;20.30;75.50;;;;;;4843541;29;20120;-80
2022/05/23 15:12:12;;;;;;;30.02;19.27;;;20.20;75.40;;;;;;4829422;29;20087;-76
2022/05/23 15:17:41;;;;;;;27.27;19.92;;;20.00;76.90;;;;;;4871997;29;20048;-74
2022/05/23 15:20:10;;;;;;;25.17;20.40;;;19.90;78.10;;;;;;4862173;29;20044;-77
2022/05/23 15:26:11;;;;;;;32.20;22.55;;;19.80;78.70;;;;;;4893589;29;20112;-80
2022/05/23 15:43:26;;;;;;;30.95;21.70;;;19.10;83.00;;;;;;4858413;29;20589;-74
2022/05/23 15:45:59;;;;;;;38.45;22.60;;;19.00;81.70;;;;;;4859584;29;20064;-80
2022/05/23 15:48:24;;;;;;;26.20;20.95;;;18.90;82.40;;;;;;4844667;29;20041;-75
2022/05/23 15:50:50;;;;;;;29.90;20.45;;;18.90;82.00;;;;;;4859479;29;20121;-77
2022/05/23 15:53:17;;;;;;;28.27;21.17;;;18.80;82.40;;;;;;4859537;29;20034;-72
2022/05/23 15:55:49;;;;;;;29.00;21.83;;;18.70;82.10;;;;;;4844091;29;20037;-76
2022/05/23 16:07:20;;;;;;;32.20;24.17;;;18.20;85.20;;;;;;5009747;23;20119;-78
2022/05/23 16:09:55;;;;;;;32.05;22.65;;;18.20;85.30;;;;;;4900340;29;20036;-83
2022/05/23 16:12:26;;;;;;;62.58;23.33;;;18.10;85.20;;;;;;4884188;29;20044;-80
2022/05/23 16:14:52;;;;;;;39.78;25.60;;;17.90;86.00;;;;;;4899785;29;20044;-77
2022/05/23 16:17:19;;;;;;;45.05;26.80;;;17.80;84.60;;;;;;4865360;29;20048;-79
2022/05/23 16:19:45;;;;;;;44.38;29.25;;;17.60;87.60;;;;;;4865926;29;20180;-78
2022/05/23 16:22:15;;;;;;;;;;;17.50;88.60;;;;;;4881467;29;20044;-78
2022/05/23 16:24:41;;;;;;;43.20;28.60;;;17.40;90.50;;;;;;4865791;29;19915;-78
2022/05/23 16:27:09;;;;;;;39.67;29.13;;;17.30;88.90;;;;;;4881257;29;20042;-77
2022/05/23 16:29:35;;;;;;;40.88;27.20;;;17.30;89.50;;;;;;4881613;29;20044;-76
2022/05/23 16:32:01;;;;;;;43.45;27.45;;;17.20;90.00;;;;;;4881719;29;20049;-76
2022/05/23 16:37:11;;;;;;;41.33;29.67;;;17.10;90.80;;;;;;4881084;29;20477;-77
2022/05/23 16:39:37;;;;;;;42.05;29.92;;;17.00;90.80;;;;;;4881459;29;20093;-79
2022/05/23 16:42:04;;;;;;;49.47;33.03;;;16.90;90.60;;;;;;4882879;29;20044;-75
2022/05/23 16:44:30;;;;;;;50.05;33.17;;;16.80;92.30;;;;;;4869490;29;20378;-79
2022/05/23 16:46:56;;;;;;;49.13;31.10;;;16.80;92.20;;;;;;4884740;29;20477;-76
2022/05/23 16:49:22;;;;;;;40.92;30.17;;;16.80;91.90;;;;;;4884773;29;20051;-74
2022/05/23 16:51:48;;;;;;;47.33;33.13;;;16.80;91.80;;;;;;4884747;29;20096;-75
2022/05/23 16:54:15;;;;;;;;;;;16.80;91.10;;;;;;4885118;29;20083;-76
2022/05/23 16:56:41;;;;;;;47.13;33.95;;;16.70;92.50;;;;;;4884171;29;19919;-78
2022/05/23 16:59:07;;;;;;;47.13;32.50;;;16.60;92.30;;;;;;4869104;29;20087;-78
2022/05/23 17:01:34;;;;;;;;;;;16.60;91.90;;;;;;4869281;29;20044;-77
2022/05/23 17:04:00;;;;;;;47.15;30.98;;;16.50;92.50;;;;;;4884343;29;20368;-76
2022/05/23 17:06:27;;;;;;;46.85;32.53;;;16.40;92.00;;;;;;4883980;29;20506;-77
2022/05/23 17:08:54;;;;;;;58.50;36.05;;;16.50;92.50;;;;;;4884449;29;20154;-75
2022/05/23 17:11:21;;;;;;;63.80;36.55;;;16.50;93.10;;;;;;4865185;29;20049;-77
2022/05/23 17:13:50;;;;;;;56.17;37.28;;;16.40;92.60;;;;;;4870536;29;20055;-76
2022/05/23 17:16:16;;;;;;;57.45;33.88;;;16.40;93.50;;;;;;4869220;29;20052;-75
2022/05/23 17:18:42;;;;;;;55.78;35.58;;;16.30;92.60;;;;;;4866752;29;20064;-74
2022/05/23 17:21:08;;;;;;;56.22;36.15;;;16.20;92.90;;;;;;4866213;29;20049;-76
2022/05/23 17:23:34;;;;;;;58.60;35.78;;;16.10;92.50;;;;;;4850174;29;20052;-75
2022/05/23 17:26:06;;;;;;;;;;;16.00;93.10;;;;;;4866087;29;20049;-79
2022/05/23 17:28:32;;;;;;;53.90;35.63;;;16.00;93.20;;;;;;4865245;29;20423;-80
2022/05/23 17:30:58;;;;;;;68.38;37.00;;;16.00;92.60;;;;;;4849847;29;20049;-76
2022/05/23 17:33:25;;;;;;;61.15;37.13;;;16.00;93.50;;;;;;4849961;29;20064;-79
2022/05/23 17:35:51;;;;;;;75.03;39.28;;;15.90;92.60;;;;;;4849441;29;20131;-78
2022/05/23 17:38:21;;;;;;;81.07;40.47;;;15.90;93.20;;;;;;4849591;29;20076;-81
2022/05/23 17:40:46;;;;;;;74.80;41.25;;;15.70;93.20;;;;;;4849462;29;20079;-79
2022/05/23 17:43:12;;;;;;;59.35;36.13;;;15.60;94.00;;;;;;4864963;29;20072;-78
2022/05/23 17:45:39;;;;;;;58.17;37.17;;;15.50;93.80;;;;;;4849129;29;20044;-79
2022/05/23 17:48:07;;;;;;;;;;;15.40;94.00;;;;;;4849425;29;20041;-74